createdAt,value
2017-09-01T00:02:17.855Z,21.70
2017-09-01T00:04:45.500Z,25.23
2017-09-01T00:07:13.281Z,23.80
2017-09-01T00:09:41.505Z,21.40
2017-09-01T00:12:10.228Z,22.00
2017-09-01T00:14:39.340Z,21.63
2017-09-01T00:17:07.504Z,21.30
2017-09-01T00:19:35.132Z,22.60
2017-09-01T00:22:02.932Z,25.57
2017-09-01T00:24:30.594Z,27.23
2017-09-01T00:26:58.264Z,27.60
2017-09-01T00:29:26.036Z,26.47
2017-09-01T00:31:53.694Z,26.53
2017-09-01T00:34:21.339Z,24.77
2017-09-01T00:36:49.085Z,24.37
2017-09-01T00:39:16.753Z,26.13
2017-09-01T00:41:44.416Z,27.90
2017-09-01T00:44:12.158Z,25.80
2017-09-01T00:46:39.819Z,26.37
2017-09-01T00:49:07.447Z,26.93
2017-09-01T00:51:35.235Z,25.70
2017-09-01T00:54:02.951Z,24.20
2017-09-01T00:56:30.643Z,24.67
2017-09-01T00:58:58.376Z,25.60
2017-09-01T01:01:26.068Z,27.03
2017-09-01T01:03:53.789Z,24.97
2017-09-01T01:06:21.731Z,23.57
2017-09-01T01:08:49.446Z,27.33
2017-09-01T01:11:17.218Z,23.93
2017-09-01T01:13:44.989Z,25.23
2017-09-01T01:16:12.664Z,25.37
2017-09-01T01:18:40.316Z,26.40
2017-09-01T01:21:08.095Z,25.60
2017-09-01T01:23:37.285Z,24.23
2017-09-01T01:26:06.037Z,25.10
2017-09-01T01:28:34.829Z,24.60
2017-09-01T01:31:03.164Z,23.13
2017-09-01T01:33:31.727Z,24.00
2017-09-01T01:36:00.398Z,25.53
2017-09-01T01:38:28.653Z,25.27
2017-09-01T01:40:57.050Z,23.23
2017-09-01T01:43:24.855Z,21.87
2017-09-01T01:45:52.585Z,24.00
2017-09-01T01:48:20.279Z,22.27
2017-09-01T01:50:48.020Z,24.67
2017-09-01T01:53:15.728Z,22.53
2017-09-01T01:55:43.448Z,25.80
2017-09-01T01:58:11.276Z,24.07
2017-09-01T02:00:38.984Z,26.83
2017-09-01T02:03:06.689Z,24.10
2017-09-01T02:05:34.544Z,25.47
2017-09-01T02:08:02.250Z,24.90
2017-09-01T02:10:29.940Z,23.43
2017-09-01T02:12:57.736Z,23.40
2017-09-01T02:15:25.398Z,22.30
2017-09-01T02:17:53.164Z,23.00
2017-09-01T02:20:21.152Z,23.37
2017-09-01T02:22:48.946Z,21.73
2017-09-01T02:25:16.672Z,21.43
2017-09-01T02:27:44.571Z,22.53
2017-09-01T02:30:12.283Z,20.00
2017-09-01T02:32:39.984Z,21.67
2017-09-01T02:35:07.741Z,18.20
2017-09-01T02:37:35.472Z,18.73
2017-09-01T02:40:03.264Z,18.10
2017-09-01T02:42:31.036Z,18.33
2017-09-01T02:44:58.759Z,17.77
2017-09-01T02:47:26.635Z,20.07
2017-09-01T02:49:54.423Z,19.77
2017-09-01T02:52:23.071Z,20.40
2017-09-01T02:54:51.430Z,19.30
2017-09-01T02:57:20.489Z,20.43
2017-09-01T02:59:49.615Z,19.43
2017-09-01T03:02:17.994Z,18.90
2017-09-01T03:04:46.662Z,22.73
2017-09-01T03:07:14.808Z,18.40
2017-09-01T03:09:42.539Z,23.50
2017-09-01T03:12:10.307Z,24.10
2017-09-01T03:14:38.109Z,23.20
2017-09-01T03:17:05.803Z,18.40
2017-09-01T03:19:33.577Z,24.83
2017-09-01T03:22:01.288Z,111.87
2017-09-01T03:24:29.008Z,22.80
2017-09-01T03:26:56.822Z,18.80
2017-09-01T03:29:24.527Z,21.13
2017-09-01T03:31:52.265Z,16.73
2017-09-01T03:34:19.991Z,17.53
2017-09-01T03:36:47.756Z,17.20
2017-09-01T03:39:15.468Z,12.13
2017-09-01T03:41:43.228Z,9.80
2017-09-01T03:44:10.965Z,10.40
2017-09-01T03:46:38.704Z,9.97
2017-09-01T03:49:06.418Z,10.30
2017-09-01T03:51:34.134Z,10.17
2017-09-01T03:54:01.844Z,10.90
2017-09-01T03:56:29.601Z,10.40
2017-09-01T03:58:57.367Z,11.50
2017-09-01T04:01:25.069Z,13.17
2017-09-01T04:03:53.447Z,11.10
2017-09-01T04:06:21.185Z,12.10
2017-09-01T04:08:49.534Z,12.17
2017-09-01T04:11:17.895Z,13.23
2017-09-01T04:13:46.207Z,9.53
2017-09-01T04:16:14.825Z,9.63
2017-09-01T04:18:43.218Z,10.00
2017-09-01T04:21:11.513Z,10.20
2017-09-01T04:23:39.493Z,11.00
2017-09-01T04:26:07.207Z,11.13
2017-09-01T04:28:34.876Z,13.20
2017-09-01T04:31:02.625Z,11.77
2017-09-01T04:33:30.340Z,11.67
2017-09-01T04:35:58.019Z,11.60
2017-09-01T04:38:25.817Z,12.63
2017-09-01T04:40:53.720Z,14.37
2017-09-01T04:43:21.505Z,12.50
2017-09-01T04:45:49.180Z,13.90
2017-09-01T04:48:17.090Z,14.30
2017-09-01T04:50:44.751Z,13.60
2017-09-01T04:53:12.436Z,14.77
2017-09-01T04:55:40.198Z,15.33
2017-09-01T04:58:07.856Z,16.10
2017-09-01T05:00:35.658Z,18.57
2017-09-01T05:03:03.369Z,17.43
2017-09-01T05:05:31.072Z,18.00
2017-09-01T05:07:58.704Z,16.83
2017-09-01T05:10:26.480Z,21.80
2017-09-01T05:12:54.162Z,17.73
2017-09-01T05:15:21.790Z,17.00
2017-09-01T05:17:49.598Z,17.10
2017-09-01T05:20:17.236Z,17.43
2017-09-01T05:22:45.378Z,18.07
2017-09-01T05:25:14.101Z,16.93
2017-09-01T05:27:42.532Z,17.90
2017-09-01T05:30:11.210Z,20.00
2017-09-01T05:32:40.019Z,17.67
2017-09-01T05:35:08.820Z,17.20
2017-09-01T05:37:36.950Z,15.83
2017-09-01T05:40:04.653Z,16.90
2017-09-01T05:42:33.867Z,19.60
2017-09-01T05:45:01.508Z,19.10
2017-09-01T05:47:29.285Z,17.13
2017-09-01T05:49:57.248Z,18.53
2017-09-01T05:52:25.014Z,19.20
2017-09-01T05:54:52.707Z,23.50
2017-09-01T05:57:20.380Z,18.60
2017-09-01T05:59:48.021Z,18.07
2017-09-01T06:02:15.818Z,20.30
2017-09-01T06:04:43.446Z,20.03
2017-09-01T06:07:11.107Z,17.33
2017-09-01T06:09:38.812Z,15.53
2017-09-01T06:12:06.452Z,15.60
2017-09-01T06:14:34.079Z,15.50
2017-09-01T06:17:01.760Z,14.77
2017-09-01T06:19:29.440Z,13.03
2017-09-01T06:21:57.079Z,12.53
2017-09-01T06:24:24.988Z,11.27
2017-09-01T06:26:52.640Z,11.97
2017-09-01T06:29:20.324Z,12.50
2017-09-01T06:31:48.007Z,11.40
2017-09-01T06:34:15.633Z,11.07
2017-09-01T06:36:43.296Z,11.80
2017-09-01T06:39:10.960Z,12.00
2017-09-01T06:41:38.587Z,14.47
2017-09-01T06:44:06.200Z,13.70
2017-09-01T06:46:33.989Z,11.63
2017-09-01T06:49:01.599Z,12.10
2017-09-01T06:51:29.224Z,11.80
2017-09-01T06:53:56.880Z,12.60
2017-09-01T06:56:24.505Z,14.37
2017-09-01T06:58:52.206Z,13.90
2017-09-01T07:01:19.886Z,10.57
2017-09-01T07:03:47.531Z,9.87
2017-09-01T07:06:15.180Z,11.10
2017-09-01T07:08:42.890Z,12.73
2017-09-01T07:11:10.544Z,9.90
2017-09-01T07:13:38.180Z,9.07
2017-09-01T07:16:05.860Z,9.47
2017-09-01T07:18:33.473Z,6.70
2017-09-01T07:21:01.948Z,7.83
2017-09-01T07:23:29.676Z,5.70
2017-09-01T07:25:57.317Z,6.50
2017-09-01T07:28:24.977Z,6.30
2017-09-01T07:30:52.706Z,6.00
2017-09-01T07:33:20.351Z,7.10
2017-09-01T07:35:48.029Z,6.83
2017-09-01T07:38:15.706Z,7.47
2017-09-01T07:40:43.422Z,8.17
2017-09-01T07:43:11.063Z,7.57
2017-09-01T07:45:38.797Z,6.87
2017-09-01T07:48:06.416Z,6.73
2017-09-01T07:50:34.137Z,6.67
2017-09-01T07:53:01.932Z,5.80
2017-09-01T07:55:29.575Z,6.30
2017-09-01T07:57:57.244Z,6.60
2017-09-01T08:00:24.954Z,5.20
2017-09-01T08:02:52.604Z,5.97
2017-09-01T08:05:20.235Z,5.27
2017-09-01T08:07:47.912Z,3.97
2017-09-01T08:10:15.524Z,4.33
2017-09-01T08:12:43.181Z,4.73
2017-09-01T08:15:10.864Z,5.03
2017-09-01T08:17:38.483Z,5.67
2017-09-01T08:20:06.114Z,5.90
2017-09-01T08:22:33.883Z,6.00
2017-09-01T08:25:01.511Z,5.40
2017-09-01T08:27:29.141Z,4.57
2017-09-01T08:29:56.807Z,5.40
2017-09-01T08:32:24.454Z,5.87
2017-09-01T08:34:52.167Z,6.87
2017-09-01T08:37:19.875Z,7.50
2017-09-01T08:39:47.567Z,7.63
2017-09-01T08:42:15.199Z,7.73
2017-09-01T08:44:42.872Z,8.30
2017-09-01T08:47:10.564Z,7.63
2017-09-01T08:49:39.445Z,7.10
2017-09-01T08:52:07.113Z,7.10
2017-09-01T08:54:34.729Z,7.00
2017-09-01T08:57:03.135Z,6.83
2017-09-01T08:59:30.817Z,6.20
2017-09-01T09:01:58.432Z,5.60
2017-09-01T09:04:26.068Z,6.50
2017-09-01T09:06:53.824Z,5.80
2017-09-01T09:09:21.481Z,6.37
2017-09-01T09:11:49.123Z,6.30
2017-09-01T09:14:16.832Z,6.80
2017-09-01T09:16:44.480Z,6.00
2017-09-01T09:19:12.229Z,6.10
2017-09-01T09:21:39.928Z,7.13
2017-09-01T09:24:07.557Z,6.10
2017-09-01T09:26:35.205Z,7.00
2017-09-01T09:29:02.904Z,6.40
2017-09-01T09:31:30.625Z,6.70
2017-09-01T09:33:58.296Z,5.83
2017-09-01T09:36:25.981Z,7.50
2017-09-01T09:38:54.396Z,7.20
2017-09-01T09:41:22.009Z,7.83
2017-09-01T09:43:49.773Z,6.20
2017-09-01T09:46:17.407Z,4.60
2017-09-01T09:48:45.156Z,5.00
2017-09-01T09:51:12.843Z,4.47
2017-09-01T09:53:41.385Z,5.27
2017-09-01T09:56:09.050Z,5.03
2017-09-01T09:58:36.746Z,5.30
2017-09-01T10:01:04.371Z,4.30
2017-09-01T10:03:31.988Z,5.40
2017-09-01T10:05:59.702Z,4.50
2017-09-01T10:08:27.336Z,7.03
2017-09-01T10:10:54.961Z,6.30
2017-09-01T10:13:22.669Z,5.27
2017-09-01T10:15:50.358Z,4.80
2017-09-01T10:18:18.000Z,6.30
2017-09-01T10:20:45.706Z,5.40
2017-09-01T10:23:13.358Z,4.90
2017-09-01T10:25:42.275Z,4.70
2017-09-01T10:28:10.073Z,4.13
2017-09-01T10:30:37.776Z,4.20
2017-09-01T10:33:05.427Z,4.67
2017-09-01T10:35:33.087Z,5.20
2017-09-01T10:38:00.736Z,4.47
2017-09-01T10:40:28.449Z,4.90
2017-09-01T10:42:56.155Z,4.80
2017-09-01T10:45:23.786Z,4.93
2017-09-01T10:48:03.284Z,4.47
2017-09-01T10:50:42.704Z,5.00
2017-09-01T10:53:22.477Z,5.13
2017-09-01T10:56:01.965Z,5.70
2017-09-01T10:58:29.704Z,6.20
2017-09-01T11:00:57.340Z,6.67
2017-09-01T11:03:25.071Z,5.30
2017-09-01T11:05:52.731Z,6.20
2017-09-01T11:08:20.389Z,4.73
2017-09-01T11:10:48.022Z,5.63
2017-09-01T11:13:15.720Z,5.30
2017-09-01T11:15:43.376Z,5.27
2017-09-01T11:18:11.036Z,5.20
2017-09-01T11:20:44.345Z,4.30
2017-09-01T11:23:17.699Z,5.13
2017-09-01T11:25:45.415Z,4.17
2017-09-01T11:28:13.058Z,4.00
2017-09-01T11:30:40.739Z,5.87
2017-09-01T11:33:08.496Z,4.40
2017-09-01T11:35:36.176Z,3.97
2017-09-01T11:38:03.917Z,4.20
2017-09-01T11:40:31.637Z,4.03
2017-09-01T11:42:59.269Z,2.70
2017-09-01T11:45:26.934Z,2.50
2017-09-01T11:47:54.621Z,2.50
2017-09-01T11:50:22.311Z,2.80
2017-09-01T11:52:49.988Z,3.00
2017-09-01T11:55:17.735Z,3.40
2017-09-01T11:57:45.373Z,2.90
2017-09-01T12:00:13.186Z,3.17
2017-09-01T12:02:40.902Z,2.70
2017-09-01T12:05:08.527Z,2.97
2017-09-01T12:07:36.208Z,3.37
2017-09-01T12:10:03.926Z,3.60
2017-09-01T12:12:31.557Z,3.70
2017-09-01T12:14:59.164Z,3.20
2017-09-01T12:17:26.879Z,3.00
2017-09-01T12:19:54.550Z,2.80
2017-09-01T12:22:22.212Z,2.77
2017-09-01T12:24:49.913Z,2.07
2017-09-01T12:27:17.533Z,2.37
2017-09-01T12:29:45.196Z,2.13
2017-09-01T12:32:12.971Z,2.17
2017-09-01T12:34:40.621Z,2.90
2017-09-01T12:37:08.251Z,3.37
2017-09-01T12:39:35.977Z,3.90
2017-09-01T12:42:03.661Z,3.83
2017-09-01T12:44:32.287Z,3.57
2017-09-01T12:46:59.981Z,3.20
2017-09-01T12:49:27.599Z,3.20
2017-09-01T12:51:55.253Z,2.53
2017-09-01T12:54:22.952Z,3.40
2017-09-01T12:56:50.572Z,2.30
2017-09-01T12:59:18.204Z,3.20
2017-09-01T13:01:45.920Z,3.40
2017-09-01T13:04:13.584Z,3.07
2017-09-01T13:06:41.215Z,3.40
2017-09-01T13:09:08.888Z,3.40
2017-09-01T13:11:36.563Z,2.60
2017-09-01T13:14:04.187Z,3.47
2017-09-01T13:16:32.629Z,3.93
2017-09-01T13:19:00.303Z,1.87
2017-09-01T13:21:27.925Z,1.83
2017-09-01T13:23:55.603Z,1.50
2017-09-01T13:26:23.253Z,1.60
2017-09-01T13:28:50.885Z,1.50
2017-09-01T13:31:18.561Z,1.70
2017-09-01T13:33:46.220Z,1.90
2017-09-01T13:36:13.827Z,1.47
2017-09-01T13:38:41.512Z,1.73
2017-09-01T13:41:09.198Z,1.40
2017-09-01T13:43:36.851Z,1.50
2017-09-01T13:46:04.523Z,1.80
2017-09-01T13:48:32.164Z,1.53
2017-09-01T13:50:59.778Z,1.50
2017-09-01T13:53:27.491Z,1.87
2017-09-01T13:55:55.121Z,1.20
2017-09-01T13:58:22.732Z,1.93
2017-09-01T14:00:50.398Z,1.20
2017-09-01T14:03:18.003Z,1.90
2017-09-01T14:05:45.610Z,1.50
2017-09-01T14:08:13.264Z,1.70
2017-09-01T14:10:40.908Z,1.23
2017-09-01T14:13:08.512Z,1.47
2017-09-01T14:15:36.161Z,1.90
2017-09-01T14:18:03.779Z,1.20
2017-09-01T14:20:31.382Z,1.47
2017-09-01T14:22:59.055Z,1.30
2017-09-01T14:25:26.664Z,1.60
2017-09-01T14:27:54.268Z,1.20
2017-09-01T14:30:21.943Z,2.43
2017-09-01T14:32:49.559Z,2.60
2017-09-01T14:35:17.176Z,2.30
2017-09-01T14:37:44.827Z,2.20
2017-09-01T14:40:12.505Z,2.70
2017-09-01T14:42:40.168Z,3.50
2017-09-01T14:45:07.859Z,3.30
2017-09-01T14:47:35.502Z,4.00
2017-09-01T14:50:03.178Z,4.40
2017-09-01T14:52:30.860Z,4.07
2017-09-01T14:54:58.489Z,3.27
2017-09-01T14:57:26.140Z,4.03
2017-09-01T14:59:53.817Z,4.20
2017-09-01T15:02:21.461Z,4.90
2017-09-01T15:04:49.089Z,4.90
2017-09-01T15:07:16.913Z,5.30
2017-09-01T15:09:44.564Z,5.40
2017-09-01T15:12:12.183Z,5.20
2017-09-01T15:14:39.872Z,5.53
2017-09-01T15:17:07.537Z,5.47
2017-09-01T15:19:35.157Z,5.03
2017-09-01T15:22:02.995Z,5.33
2017-09-01T15:24:30.612Z,4.93
2017-09-01T15:26:58.255Z,3.47
2017-09-01T15:29:25.919Z,4.50
2017-09-01T15:31:53.566Z,3.93
2017-09-01T15:34:21.177Z,4.17
2017-09-01T15:36:48.843Z,4.23
2017-09-01T15:39:16.485Z,4.23
2017-09-01T15:41:44.113Z,3.67
2017-09-01T15:44:11.872Z,3.30
2017-09-01T15:46:39.489Z,4.50
2017-09-01T15:49:07.116Z,4.10
2017-09-01T15:51:34.819Z,4.20
2017-09-01T15:54:02.448Z,5.13
2017-09-01T15:56:30.066Z,5.70
2017-09-01T15:58:57.812Z,5.63
2017-09-01T16:01:25.446Z,6.77
2017-09-01T16:03:53.053Z,6.70
2017-09-01T16:06:20.719Z,6.30
2017-09-01T16:08:48.338Z,6.70
2017-09-01T16:11:15.984Z,6.40
2017-09-01T16:13:43.671Z,5.97
2017-09-01T16:16:11.301Z,6.97
2017-09-01T16:18:38.959Z,5.50
2017-09-01T16:21:06.677Z,4.90
2017-09-01T16:23:34.325Z,4.93
2017-09-01T16:26:02.035Z,4.90
2017-09-01T16:28:29.728Z,4.40
2017-09-01T16:30:57.414Z,3.80
2017-09-01T16:33:25.056Z,4.10
2017-09-01T16:35:52.737Z,3.77
2017-09-01T16:38:20.396Z,4.70
2017-09-01T16:40:48.034Z,4.43
2017-09-01T16:43:15.712Z,4.53
2017-09-01T16:45:43.340Z,4.23
2017-09-01T16:48:10.993Z,4.43
2017-09-01T16:50:38.723Z,4.10
2017-09-01T16:53:06.351Z,4.37
2017-09-01T16:55:34.000Z,3.60
2017-09-01T16:58:01.700Z,3.53
2017-09-01T17:00:29.357Z,4.40
2017-09-01T17:02:57.049Z,4.00
2017-09-01T17:05:24.759Z,4.30
2017-09-01T17:07:52.432Z,5.20
2017-09-01T17:10:20.110Z,5.40
2017-09-01T17:12:47.956Z,4.97
2017-09-01T17:15:15.587Z,6.10
2017-09-01T17:17:43.278Z,6.30
2017-09-01T17:20:10.957Z,5.33
2017-09-01T17:22:38.572Z,8.10
2017-09-01T17:25:06.320Z,8.17
2017-09-01T17:27:34.075Z,9.10
2017-09-01T17:30:01.957Z,7.10
2017-09-01T17:32:29.858Z,8.43
2017-09-01T17:37:30.998Z,8.20
2017-09-01T17:39:59.034Z,7.87
2017-09-01T17:42:26.695Z,8.00
2017-09-01T17:44:57.451Z,7.47
2017-09-01T17:47:25.683Z,7.60
2017-09-01T17:49:55.876Z,11.00
2017-09-01T17:52:23.829Z,8.80
2017-09-01T17:54:51.805Z,7.97
2017-09-01T17:57:19.545Z,8.43
2017-09-01T17:59:47.493Z,8.90
2017-09-01T18:02:15.315Z,9.53
2017-09-01T18:04:43.342Z,8.10
2017-09-01T18:07:11.256Z,9.00
2017-09-01T18:09:39.185Z,8.50
2017-09-01T18:12:07.041Z,5.30
2017-09-01T18:14:35.021Z,5.10
2017-09-01T18:17:02.942Z,5.37
2017-09-01T18:19:30.669Z,6.23
2017-09-01T18:21:58.350Z,5.90
2017-09-01T18:24:26.623Z,6.07
2017-09-01T18:26:54.236Z,6.60
2017-09-01T18:29:22.319Z,7.33
2017-09-01T18:31:50.171Z,7.77
2017-09-01T18:34:17.937Z,7.80
2017-09-01T18:36:45.759Z,7.93
2017-09-01T18:39:14.273Z,8.13
2017-09-01T18:41:42.295Z,8.70
2017-09-01T18:44:11.896Z,8.13
2017-09-01T18:46:40.967Z,9.37
2017-09-01T18:49:08.635Z,8.53
2017-09-01T18:51:36.389Z,8.93
2017-09-01T18:54:04.181Z,7.80
2017-09-01T18:56:32.830Z,9.20
2017-09-01T18:59:00.687Z,9.80
2017-09-01T19:01:28.310Z,10.30
2017-09-01T19:03:55.970Z,9.93
2017-09-01T19:06:23.708Z,9.10
2017-09-01T19:08:51.547Z,11.10
2017-09-01T19:11:19.238Z,10.33
2017-09-01T19:13:47.055Z,9.87
2017-09-01T19:16:14.776Z,11.33
2017-09-01T19:18:42.519Z,10.80
2017-09-01T19:21:10.355Z,12.47
2017-09-01T19:23:38.055Z,14.13
2017-09-01T19:26:05.755Z,12.60
2017-09-01T19:28:33.619Z,14.03
2017-09-01T19:31:01.560Z,12.17
2017-09-01T19:33:37.293Z,15.67
2017-09-01T19:36:05.425Z,15.30
2017-09-01T19:38:33.250Z,15.63
2017-09-01T19:41:02.424Z,14.63
2017-09-01T19:43:30.228Z,17.90
2017-09-01T19:45:58.652Z,16.30
2017-09-01T19:48:26.470Z,16.40
2017-09-01T19:50:55.477Z,17.60
2017-09-01T19:53:23.344Z,17.77
2017-09-01T19:55:51.137Z,18.50
2017-09-01T19:58:18.927Z,18.80
2017-09-01T20:00:46.619Z,17.20
2017-09-01T20:03:14.378Z,21.17
2017-09-01T20:05:42.128Z,19.20
2017-09-01T20:08:09.996Z,20.87
2017-09-01T20:10:37.941Z,20.60
2017-09-01T20:13:05.868Z,21.73
2017-09-01T20:15:33.755Z,23.70
2017-09-01T20:18:01.604Z,21.80
2017-09-01T20:20:29.533Z,25.50
2017-09-01T20:22:57.361Z,21.87
2017-09-01T20:25:25.111Z,25.83
2017-09-01T20:27:52.883Z,23.80
2017-09-01T20:30:20.645Z,23.27
2017-09-01T20:32:48.290Z,25.37
2017-09-01T20:35:16.023Z,23.43
2017-09-01T20:37:46.712Z,18.17
2017-09-01T20:40:14.705Z,17.73
2017-09-01T20:42:42.673Z,16.37
2017-09-01T20:45:10.436Z,17.63
2017-09-01T20:47:38.310Z,16.20
2017-09-01T20:50:06.772Z,16.17
2017-09-01T20:52:35.277Z,15.63
2017-09-01T20:55:02.961Z,15.37
2017-09-01T20:57:30.664Z,16.83
2017-09-01T20:59:58.439Z,14.87
2017-09-01T21:02:26.167Z,14.27
2017-09-01T21:04:54.064Z,15.37
2017-09-01T21:07:22.932Z,12.70
2017-09-01T21:09:50.975Z,15.80
2017-09-01T21:12:19.242Z,17.83
2017-09-01T21:14:47.071Z,17.60
2017-09-01T21:17:15.672Z,16.33
2017-09-01T21:19:43.605Z,18.50
2017-09-01T21:22:11.956Z,16.97
2017-09-01T21:24:40.472Z,19.50
2017-09-01T21:27:08.945Z,16.73
2017-09-01T21:29:36.740Z,16.07
2017-09-01T21:32:04.391Z,15.67
2017-09-01T21:34:33.218Z,12.97
2017-09-01T21:37:01.125Z,15.20
2017-09-01T21:39:28.948Z,13.83
2017-09-01T21:41:56.817Z,13.33
2017-09-01T21:44:24.792Z,12.20
2017-09-01T21:46:53.562Z,12.80
2017-09-01T21:49:21.814Z,12.50
2017-09-01T21:51:49.636Z,13.40
2017-09-01T21:54:17.395Z,12.57
2017-09-01T21:56:45.266Z,12.73
2017-09-01T21:59:12.923Z,12.73
2017-09-01T22:01:40.636Z,13.30
2017-09-01T22:04:08.401Z,12.37
2017-09-01T22:06:36.503Z,13.00
2017-09-01T22:09:04.397Z,12.67
2017-09-01T22:11:32.358Z,13.40
2017-09-01T22:14:00.239Z,15.30
2017-09-01T22:16:28.124Z,14.90
2017-09-01T22:18:56.934Z,12.43
2017-09-01T22:21:24.888Z,14.87
2017-09-01T22:23:53.825Z,12.80
2017-09-01T22:26:21.804Z,14.50
2017-09-01T22:28:49.565Z,14.30
2017-09-01T22:31:18.422Z,14.33
2017-09-01T22:33:46.333Z,16.10
2017-09-01T22:36:14.897Z,14.70
2017-09-01T22:38:43.009Z,15.40
2017-09-01T22:41:11.260Z,14.97
2017-09-01T22:43:39.229Z,15.03
2017-09-01T22:46:07.931Z,17.70
2017-09-01T22:48:35.888Z,17.80
2017-09-01T22:51:03.764Z,17.73
2017-09-01T22:53:31.672Z,17.17
2017-09-01T22:55:59.747Z,20.10
2017-09-01T22:58:27.602Z,17.60
2017-09-01T23:00:56.618Z,19.77
2017-09-01T23:03:25.188Z,20.33
2017-09-01T23:05:54.485Z,19.07
2017-09-01T23:08:23.194Z,19.60
2017-09-01T23:10:51.650Z,18.73
2017-09-01T23:13:20.595Z,17.80
2017-09-01T23:15:48.784Z,17.27
2017-09-01T23:18:16.543Z,16.37
2017-09-01T23:20:45.104Z,17.97
2017-09-01T23:23:12.731Z,21.00
2017-09-01T23:25:40.490Z,19.33
2017-09-01T23:28:08.152Z,18.57
2017-09-01T23:30:35.813Z,20.40
2017-09-01T23:33:03.672Z,19.00
2017-09-01T23:35:31.401Z,19.10
2017-09-01T23:37:59.076Z,19.10
2017-09-01T23:40:26.874Z,18.37
2017-09-01T23:42:54.628Z,21.50
2017-09-01T23:45:22.303Z,20.00
2017-09-01T23:47:51.226Z,20.50
2017-09-01T23:50:18.985Z,19.43
2017-09-01T23:52:46.640Z,20.20
2017-09-01T23:55:14.327Z,19.17
2017-09-01T23:57:42.996Z,19.13
